sensor_id;sensor_type;location;lat;lon;timestamp;P1;durP1;ratioP1;P2;durP2;ratioP2
4355;SDS011;64374;51.482;7.408;2023-11-19T00:01:20;1.30;;;1.20;;
4355;SDS011;64374;51.482;7.408;2023-11-19T00:04:09;1.10;;;1.00;;
4355;SDS011;64374;51.482;7.408;2023-11-19T00:06:56;1.20;;;1.10;;
4355;SDS011;64374;51.482;7.408;2023-11-19T00:09:47;1.73;;;1.10;;
4355;SDS011;64374;51.482;7.408;2023-11-19T00:12:34;1.50;;;1.35;;
4355;SDS011;64374;51.482;7.408;2023-11-19T00:15:25;2.03;;;1.80;;
4355;SDS011;64374;51.482;7.408;2023-11-19T00:18:04;1.60;;;0.90;;
4355;SDS011;64374;51.482;7.408;2023-11-19T00:20:32;1.10;;;1.00;;
4355;SDS011;64374;51.482;7.408;2023-11-19T00:23:18;1.10;;;1.00;;
4355;SDS011;64374;51.482;7.408;2023-11-19T00:26:08;2.80;;;1.30;;
4355;SDS011;64374;51.482;7.408;2023-11-19T00:28:54;1.20;;;1.10;;
4355;SDS011;64374;51.482;7.408;2023-11-19T00:31:43;1.50;;;1.30;;
4355;SDS011;64374;51.482;7.408;2023-11-19T00:34:32;3.55;;;1.77;;
4355;SDS011;64374;51.482;7.408;2023-11-19T00:37:21;2.10;;;1.90;;
4355;SDS011;64374;51.482;7.408;2023-11-19T00:40:08;3.10;;;2.20;;
4355;SDS011;64374;51.482;7.408;2023-11-19T00:42:56;2.40;;;1.40;;
4355;SDS011;64374;51.482;7.408;2023-11-19T00:45:45;2.90;;;1.60;;
4355;SDS011;64374;51.482;7.408;2023-11-19T00:48:33;3.22;;;1.80;;
4355;SDS011;64374;51.482;7.408;2023-11-19T00:51:22;2.00;;;1.60;;
4355;SDS011;64374;51.482;7.408;2023-11-19T00:54:12;3.47;;;2.20;;
4355;SDS011;64374;51.482;7.408;2023-11-19T00:56:58;5.47;;;2.38;;
4355;SDS011;64374;51.482;7.408;2023-11-19T00:59:53;3.85;;;2.67;;
4355;SDS011;64374;51.482;7.408;2023-11-19T01:02:39;2.90;;;2.70;;
4355;SDS011;64374;51.482;7.408;2023-11-19T01:05:30;4.25;;;2.72;;
4355;SDS011;64374;51.482;7.408;2023-11-19T01:08:17;2.85;;;2.40;;
4355;SDS011;64374;51.482;7.408;2023-11-19T01:11:04;3.90;;;2.30;;
4355;SDS011;64374;51.482;7.408;2023-11-19T01:13:53;2.40;;;2.20;;
4355;SDS011;64374;51.482;7.408;2023-11-19T01:16:40;2.20;;;1.77;;
4355;SDS011;64374;51.482;7.408;2023-11-19T01:19:28;3.15;;;2.10;;
4355;SDS011;64374;51.482;7.408;2023-11-19T01:22:32;2.65;;;2.45;;
4355;SDS011;64374;51.482;7.408;2023-11-19T01:25:26;2.90;;;2.38;;
4355;SDS011;64374;51.482;7.408;2023-11-19T01:28:13;2.20;;;2.10;;
4355;SDS011;64374;51.482;7.408;2023-11-19T01:31:00;3.45;;;2.17;;
4355;SDS011;64374;51.482;7.408;2023-11-19T01:33:49;2.30;;;2.10;;
4355;SDS011;64374;51.482;7.408;2023-11-19T01:36:36;3.90;;;2.30;;
4355;SDS011;64374;51.482;7.408;2023-11-19T01:39:26;2.30;;;2.00;;
4355;SDS011;64374;51.482;7.408;2023-11-19T01:42:13;2.72;;;2.30;;
4355;SDS011;64374;51.482;7.408;2023-11-19T01:45:01;3.78;;;1.90;;
4355;SDS011;64374;51.482;7.408;2023-11-19T01:47:51;3.60;;;1.80;;
4355;SDS011;64374;51.482;7.408;2023-11-19T01:50:40;2.70;;;1.30;;
4355;SDS011;64374;51.482;7.408;2023-11-19T01:53:31;1.50;;;1.30;;
4355;SDS011;64374;51.482;7.408;2023-11-19T01:56:21;1.30;;;1.20;;
4355;SDS011;64374;51.482;7.408;2023-11-19T01:59:09;1.42;;;1.33;;
4355;SDS011;64374;51.482;7.408;2023-11-19T02:02:01;1.63;;;1.50;;
4355;SDS011;64374;51.482;7.408;2023-11-19T02:04:49;1.35;;;1.23;;
4355;SDS011;64374;51.482;7.408;2023-11-19T02:07:37;1.53;;;1.30;;
4355;SDS011;64374;51.482;7.408;2023-11-19T02:10:23;2.28;;;1.40;;
4355;SDS011;64374;51.482;7.408;2023-11-19T02:13:16;2.00;;;1.60;;
4355;SDS011;64374;51.482;7.408;2023-11-19T02:16:03;3.53;;;1.90;;
4355;SDS011;64374;51.482;7.408;2023-11-19T02:18:52;3.00;;;1.60;;
4355;SDS011;64374;51.482;7.408;2023-11-19T02:21:45;3.30;;;1.70;;
4355;SDS011;64374;51.482;7.408;2023-11-19T02:24:32;2.63;;;1.50;;
4355;SDS011;64374;51.482;7.408;2023-11-19T02:27:21;3.00;;;2.00;;
4355;SDS011;64374;51.482;7.408;2023-11-19T02:30:19;3.67;;;1.90;;
4355;SDS011;64374;51.482;7.408;2023-11-19T02:33:11;3.40;;;2.03;;
4355;SDS011;64374;51.482;7.408;2023-11-19T02:36:00;3.77;;;2.00;;
4355;SDS011;64374;51.482;7.408;2023-11-19T02:38:49;3.25;;;1.75;;
4355;SDS011;64374;51.482;7.408;2023-11-19T02:41:37;3.38;;;2.00;;
4355;SDS011;64374;51.482;7.408;2023-11-19T02:44:25;5.00;;;2.30;;
4355;SDS011;64374;51.482;7.408;2023-11-19T02:47:17;6.40;;;2.30;;
4355;SDS011;64374;51.482;7.408;2023-11-19T02:50:04;7.47;;;2.30;;
4355;SDS011;64374;51.482;7.408;2023-11-19T02:52:59;5.88;;;2.28;;
4355;SDS011;64374;51.482;7.408;2023-11-19T02:55:47;4.30;;;2.10;;
4355;SDS011;64374;51.482;7.408;2023-11-19T02:58:36;9.32;;;2.40;;
4355;SDS011;64374;51.482;7.408;2023-11-19T03:01:24;5.63;;;2.20;;
4355;SDS011;64374;51.482;7.408;2023-11-19T03:04:17;10.75;;;2.50;;
4355;SDS011;64374;51.482;7.408;2023-11-19T03:07:05;8.98;;;2.60;;
4355;SDS011;64374;51.482;7.408;2023-11-19T03:09:56;6.63;;;2.30;;
4355;SDS011;64374;51.482;7.408;2023-11-19T03:12:43;5.97;;;2.50;;
4355;SDS011;64374;51.482;7.408;2023-11-19T03:15:44;7.50;;;2.35;;
4355;SDS011;64374;51.482;7.408;2023-11-19T03:18:31;7.37;;;2.10;;
4355;SDS011;64374;51.482;7.408;2023-11-19T03:21:19;10.18;;;2.35;;
4355;SDS011;64374;51.482;7.408;2023-11-19T03:24:05;6.90;;;2.58;;
4355;SDS011;64374;51.482;7.408;2023-11-19T03:26:53;12.07;;;3.13;;
4355;SDS011;64374;51.482;7.408;2023-11-19T03:29:40;10.20;;;3.33;;
4355;SDS011;64374;51.482;7.408;2023-11-19T03:32:27;8.75;;;2.70;;
4355;SDS011;64374;51.482;7.408;2023-11-19T03:35:14;15.70;;;3.33;;
4355;SDS011;64374;51.482;7.408;2023-11-19T03:38:02;8.70;;;3.05;;
4355;SDS011;64374;51.482;7.408;2023-11-19T03:40:49;9.75;;;3.38;;
4355;SDS011;64374;51.482;7.408;2023-11-19T03:43:44;10.05;;;3.50;;
4355;SDS011;64374;51.482;7.408;2023-11-19T03:46:30;9.95;;;3.20;;
4355;SDS011;64374;51.482;7.408;2023-11-19T03:49:17;11.68;;;3.38;;
4355;SDS011;64374;51.482;7.408;2023-11-19T03:52:04;10.40;;;3.60;;
4355;SDS011;64374;51.482;7.408;2023-11-19T03:55:07;12.68;;;3.55;;
4355;SDS011;64374;51.482;7.408;2023-11-19T03:57:55;13.80;;;3.90;;
4355;SDS011;64374;51.482;7.408;2023-11-19T04:00:42;12.18;;;4.43;;
4355;SDS011;64374;51.482;7.408;2023-11-19T04:03:30;11.23;;;3.70;;
4355;SDS011;64374;51.482;7.408;2023-11-19T04:06:16;15.10;;;4.10;;
4355;SDS011;64374;51.482;7.408;2023-11-19T04:09:05;13.57;;;3.78;;
4355;SDS011;64374;51.482;7.408;2023-11-19T04:11:56;16.20;;;4.20;;
4355;SDS011;64374;51.482;7.408;2023-11-19T04:14:27;10.32;;;3.90;;
4355;SDS011;64374;51.482;7.408;2023-11-19T04:16:55;13.10;;;4.00;;
4355;SDS011;64374;51.482;7.408;2023-11-19T04:19:23;16.50;;;4.53;;
4355;SDS011;64374;51.482;7.408;2023-11-19T04:21:51;16.15;;;4.53;;
4355;SDS011;64374;51.482;7.408;2023-11-19T04:24:19;14.57;;;4.00;;
4355;SDS011;64374;51.482;7.408;2023-11-19T04:27:07;15.57;;;4.72;;
4355;SDS011;64374;51.482;7.408;2023-11-19T04:29:58;13.02;;;4.28;;
4355;SDS011;64374;51.482;7.408;2023-11-19T04:32:58;16.95;;;4.10;;
4355;SDS011;64374;51.482;7.408;2023-11-19T04:35:44;12.38;;;3.95;;
4355;SDS011;64374;51.482;7.408;2023-11-19T04:38:31;12.25;;;4.15;;
4355;SDS011;64374;51.482;7.408;2023-11-19T04:41:17;14.20;;;3.70;;
4355;SDS011;64374;51.482;7.408;2023-11-19T04:44:05;17.25;;;3.80;;
4355;SDS011;64374;51.482;7.408;2023-11-19T04:46:53;13.10;;;3.90;;
4355;SDS011;64374;51.482;7.408;2023-11-19T04:49:43;18.65;;;4.40;;
4355;SDS011;64374;51.482;7.408;2023-11-19T04:52:30;18.05;;;4.50;;
4355;SDS011;64374;51.482;7.408;2023-11-19T04:55:20;15.20;;;3.90;;
4355;SDS011;64374;51.482;7.408;2023-11-19T04:58:06;15.10;;;4.40;;
4355;SDS011;64374;51.482;7.408;2023-11-19T05:00:54;16.27;;;4.65;;
4355;SDS011;64374;51.482;7.408;2023-11-19T05:03:41;19.90;;;5.38;;
4355;SDS011;64374;51.482;7.408;2023-11-19T05:06:28;16.98;;;4.95;;
4355;SDS011;64374;51.482;7.408;2023-11-19T05:09:15;23.98;;;5.40;;
4355;SDS011;64374;51.482;7.408;2023-11-19T05:12:01;21.10;;;5.22;;
4355;SDS011;64374;51.482;7.408;2023-11-19T05:14:48;22.75;;;5.60;;
4355;SDS011;64374;51.482;7.408;2023-11-19T05:17:38;21.57;;;5.47;;
4355;SDS011;64374;51.482;7.408;2023-11-19T05:20:27;22.83;;;5.25;;
4355;SDS011;64374;51.482;7.408;2023-11-19T05:23:14;19.90;;;5.33;;
4355;SDS011;64374;51.482;7.408;2023-11-19T05:26:04;22.75;;;4.90;;
4355;SDS011;64374;51.482;7.408;2023-11-19T05:28:53;22.85;;;5.47;;
4355;SDS011;64374;51.482;7.408;2023-11-19T05:31:40;23.10;;;5.68;;
4355;SDS011;64374;51.482;7.408;2023-11-19T05:34:30;22.02;;;5.88;;
4355;SDS011;64374;51.482;7.408;2023-11-19T05:37:20;25.42;;;5.85;;
4355;SDS011;64374;51.482;7.408;2023-11-19T05:40:10;23.48;;;5.45;;
4355;SDS011;64374;51.482;7.408;2023-11-19T05:43:01;28.97;;;6.77;;
4355;SDS011;64374;51.482;7.408;2023-11-19T05:45:47;19.05;;;5.30;;
4355;SDS011;64374;51.482;7.408;2023-11-19T05:48:34;26.45;;;6.68;;
4355;SDS011;64374;51.482;7.408;2023-11-19T05:51:22;23.83;;;5.53;;
4355;SDS011;64374;51.482;7.408;2023-11-19T05:54:10;20.67;;;5.32;;
4355;SDS011;64374;51.482;7.408;2023-11-19T05:56:58;24.20;;;5.47;;
4355;SDS011;64374;51.482;7.408;2023-11-19T05:59:47;22.57;;;5.63;;
4355;SDS011;64374;51.482;7.408;2023-11-19T06:02:34;21.42;;;5.95;;
4355;SDS011;64374;51.482;7.408;2023-11-19T06:05:24;25.20;;;6.20;;
4355;SDS011;64374;51.482;7.408;2023-11-19T06:08:12;21.42;;;5.88;;
4355;SDS011;64374;51.482;7.408;2023-11-19T06:10:59;21.77;;;4.82;;
4355;SDS011;64374;51.482;7.408;2023-11-19T06:13:47;23.10;;;5.13;;
4355;SDS011;64374;51.482;7.408;2023-11-19T06:16:36;26.70;;;5.68;;
4355;SDS011;64374;51.482;7.408;2023-11-19T06:19:25;25.83;;;5.80;;
4355;SDS011;64374;51.482;7.408;2023-11-19T06:22:15;25.02;;;5.85;;
4355;SDS011;64374;51.482;7.408;2023-11-19T06:25:03;24.60;;;5.88;;
4355;SDS011;64374;51.482;7.408;2023-11-19T06:27:53;27.48;;;5.57;;
4355;SDS011;64374;51.482;7.408;2023-11-19T06:30:40;22.98;;;6.00;;
4355;SDS011;64374;51.482;7.408;2023-11-19T06:33:33;24.25;;;6.38;;
4355;SDS011;64374;51.482;7.408;2023-11-19T06:36:22;20.98;;;6.13;;
4355;SDS011;64374;51.482;7.408;2023-11-19T06:39:09;23.70;;;6.45;;
4355;SDS011;64374;51.482;7.408;2023-11-19T06:41:59;24.05;;;5.97;;
4355;SDS011;64374;51.482;7.408;2023-11-19T06:44:45;24.85;;;5.43;;
4355;SDS011;64374;51.482;7.408;2023-11-19T06:47:34;22.33;;;5.60;;
4355;SDS011;64374;51.482;7.408;2023-11-19T06:50:20;21.30;;;6.23;;
4355;SDS011;64374;51.482;7.408;2023-11-19T06:53:09;26.05;;;6.25;;
4355;SDS011;64374;51.482;7.408;2023-11-19T06:55:59;25.17;;;5.80;;
4355;SDS011;64374;51.482;7.408;2023-11-19T06:58:48;23.93;;;6.37;;
4355;SDS011;64374;51.482;7.408;2023-11-19T07:01:34;25.45;;;6.80;;
4355;SDS011;64374;51.482;7.408;2023-11-19T07:04:29;20.17;;;5.55;;
4355;SDS011;64374;51.482;7.408;2023-11-19T07:07:18;25.23;;;5.80;;
4355;SDS011;64374;51.482;7.408;2023-11-19T07:10:07;25.00;;;5.50;;
4355;SDS011;64374;51.482;7.408;2023-11-19T07:12:55;32.42;;;6.75;;
4355;SDS011;64374;51.482;7.408;2023-11-19T07:15:44;21.23;;;6.37;;
4355;SDS011;64374;51.482;7.408;2023-11-19T07:18:30;29.45;;;5.90;;
4355;SDS011;64374;51.482;7.408;2023-11-19T07:21:20;26.38;;;5.97;;
4355;SDS011;64374;51.482;7.408;2023-11-19T07:24:06;24.45;;;6.35;;
4355;SDS011;64374;51.482;7.408;2023-11-19T07:26:58;25.90;;;6.50;;
4355;SDS011;64374;51.482;7.408;2023-11-19T07:29:44;21.73;;;5.97;;
4355;SDS011;64374;51.482;7.408;2023-11-19T07:32:32;29.50;;;6.45;;
4355;SDS011;64374;51.482;7.408;2023-11-19T07:35:19;24.58;;;5.22;;
4355;SDS011;64374;51.482;7.408;2023-11-19T07:38:06;21.47;;;6.00;;
4355;SDS011;64374;51.482;7.408;2023-11-19T07:40:53;22.38;;;5.22;;
4355;SDS011;64374;51.482;7.408;2023-11-19T07:43:42;22.03;;;5.80;;
4355;SDS011;64374;51.482;7.408;2023-11-19T07:46:31;23.55;;;5.90;;
4355;SDS011;64374;51.482;7.408;2023-11-19T07:49:20;20.67;;;6.07;;
4355;SDS011;64374;51.482;7.408;2023-11-19T07:52:06;27.75;;;6.57;;
4355;SDS011;64374;51.482;7.408;2023-11-19T07:55:06;27.03;;;6.50;;
4355;SDS011;64374;51.482;7.408;2023-11-19T07:57:54;24.33;;;6.10;;
4355;SDS011;64374;51.482;7.408;2023-11-19T08:00:41;26.00;;;6.00;;
4355;SDS011;64374;51.482;7.408;2023-11-19T08:03:28;26.33;;;6.35;;
4355;SDS011;64374;51.482;7.408;2023-11-19T08:06:17;26.13;;;6.20;;
4355;SDS011;64374;51.482;7.408;2023-11-19T08:09:04;22.00;;;6.38;;
4355;SDS011;64374;51.482;7.408;2023-11-19T08:11:51;23.83;;;5.90;;
4355;SDS011;64374;51.482;7.408;2023-11-19T08:14:37;24.20;;;6.10;;
4355;SDS011;64374;51.482;7.408;2023-11-19T08:17:24;22.42;;;5.93;;
4355;SDS011;64374;51.482;7.408;2023-11-19T08:20:11;25.67;;;5.93;;
4355;SDS011;64374;51.482;7.408;2023-11-19T08:23:02;26.65;;;6.38;;
4355;SDS011;64374;51.482;7.408;2023-11-19T08:25:50;28.92;;;6.13;;
4355;SDS011;64374;51.482;7.408;2023-11-19T08:28:37;24.75;;;6.25;;
4355;SDS011;64374;51.482;7.408;2023-11-19T08:31:24;23.08;;;6.28;;
4355;SDS011;64374;51.482;7.408;2023-11-19T08:34:11;27.13;;;6.38;;
4355;SDS011;64374;51.482;7.408;2023-11-19T08:36:57;27.85;;;6.40;;
4355;SDS011;64374;51.482;7.408;2023-11-19T08:39:46;27.50;;;6.68;;
4355;SDS011;64374;51.482;7.408;2023-11-19T08:42:33;26.90;;;6.45;;
4355;SDS011;64374;51.482;7.408;2023-11-19T08:45:19;32.30;;;6.10;;
4355;SDS011;64374;51.482;7.408;2023-11-19T08:48:06;33.70;;;8.00;;
4355;SDS011;64374;51.482;7.408;2023-11-19T08:50:53;30.40;;;6.85;;
4355;SDS011;64374;51.482;7.408;2023-11-19T08:53:42;26.52;;;6.63;;
4355;SDS011;64374;51.482;7.408;2023-11-19T08:56:30;28.00;;;6.18;;
4355;SDS011;64374;51.482;7.408;2023-11-19T08:59:19;22.63;;;6.40;;
4355;SDS011;64374;51.482;7.408;2023-11-19T09:02:06;30.58;;;6.85;;
4355;SDS011;64374;51.482;7.408;2023-11-19T09:04:53;33.20;;;7.40;;
4355;SDS011;64374;51.482;7.408;2023-11-19T09:07:40;28.85;;;6.90;;
4355;SDS011;64374;51.482;7.408;2023-11-19T09:10:27;29.30;;;7.57;;
4355;SDS011;64374;51.482;7.408;2023-11-19T09:13:15;29.75;;;6.32;;
4355;SDS011;64374;51.482;7.408;2023-11-19T09:16:02;29.40;;;7.13;;
4355;SDS011;64374;51.482;7.408;2023-11-19T09:18:50;24.67;;;6.10;;
4355;SDS011;64374;51.482;7.408;2023-11-19T09:21:37;26.00;;;6.13;;
4355;SDS011;64374;51.482;7.408;2023-11-19T09:24:24;26.67;;;6.72;;
4355;SDS011;64374;51.482;7.408;2023-11-19T09:27:11;26.85;;;6.65;;
4355;SDS011;64374;51.482;7.408;2023-11-19T09:29:59;23.73;;;7.07;;
4355;SDS011;64374;51.482;7.408;2023-11-19T09:32:46;24.52;;;6.47;;
4355;SDS011;64374;51.482;7.408;2023-11-19T09:35:33;28.70;;;7.30;;
4355;SDS011;64374;51.482;7.408;2023-11-19T09:38:20;30.67;;;7.70;;
4355;SDS011;64374;51.482;7.408;2023-11-19T09:41:07;25.20;;;7.10;;
4355;SDS011;64374;51.482;7.408;2023-11-19T09:43:57;29.95;;;6.75;;
4355;SDS011;64374;51.482;7.408;2023-11-19T09:46:45;30.15;;;6.70;;
4355;SDS011;64374;51.482;7.408;2023-11-19T09:49:34;24.20;;;6.65;;
4355;SDS011;64374;51.482;7.408;2023-11-19T09:52:22;30.27;;;6.07;;
4355;SDS011;64374;51.482;7.408;2023-11-19T09:55:09;27.00;;;6.78;;
4355;SDS011;64374;51.482;7.408;2023-11-19T09:57:56;31.73;;;7.90;;
4355;SDS011;64374;51.482;7.408;2023-11-19T10:00:45;29.77;;;6.97;;
4355;SDS011;64374;51.482;7.408;2023-11-19T10:03:54;32.53;;;6.72;;
4355;SDS011;64374;51.482;7.408;2023-11-19T10:06:42;29.60;;;6.72;;
4355;SDS011;64374;51.482;7.408;2023-11-19T10:09:29;29.42;;;7.47;;
4355;SDS011;64374;51.482;7.408;2023-11-19T10:12:16;29.73;;;7.57;;
4355;SDS011;64374;51.482;7.408;2023-11-19T10:14:44;26.30;;;6.35;;
4355;SDS011;64374;51.482;7.408;2023-11-19T10:17:13;30.20;;;6.63;;
4355;SDS011;64374;51.482;7.408;2023-11-19T10:19:43;27.05;;;6.75;;
4355;SDS011;64374;51.482;7.408;2023-11-19T10:22:11;20.00;;;5.80;;
4355;SDS011;64374;51.482;7.408;2023-11-19T10:24:42;27.83;;;6.88;;
4355;SDS011;64374;51.482;7.408;2023-11-19T10:27:17;30.73;;;7.22;;
4355;SDS011;64374;51.482;7.408;2023-11-19T10:30:04;27.80;;;6.93;;
4355;SDS011;64374;51.482;7.408;2023-11-19T10:33:05;30.90;;;7.25;;
4355;SDS011;64374;51.482;7.408;2023-11-19T10:35:55;30.07;;;7.17;;
4355;SDS011;64374;51.482;7.408;2023-11-19T10:38:51;25.67;;;6.80;;
4355;SDS011;64374;51.482;7.408;2023-11-19T10:41:39;25.08;;;6.20;;
4355;SDS011;64374;51.482;7.408;2023-11-19T10:44:30;26.00;;;6.60;;
4355;SDS011;64374;51.482;7.408;2023-11-19T10:47:20;30.10;;;7.05;;
4355;SDS011;64374;51.482;7.408;2023-11-19T10:50:12;30.52;;;6.90;;
4355;SDS011;64374;51.482;7.408;2023-11-19T10:53:00;26.92;;;6.10;;
4355;SDS011;64374;51.482;7.408;2023-11-19T10:55:47;27.40;;;6.40;;
4355;SDS011;64374;51.482;7.408;2023-11-19T10:58:34;27.27;;;6.95;;
4355;SDS011;64374;51.482;7.408;2023-11-19T11:01:23;31.08;;;7.18;;
4355;SDS011;64374;51.482;7.408;2023-11-19T11:04:15;28.60;;;7.10;;
4355;SDS011;64374;51.482;7.408;2023-11-19T11:07:08;25.40;;;6.50;;
4355;SDS011;64374;51.482;7.408;2023-11-19T11:09:57;27.65;;;7.07;;
4355;SDS011;64374;51.482;7.408;2023-11-19T11:12:45;28.20;;;6.32;;
4355;SDS011;64374;51.482;7.408;2023-11-19T11:15:35;26.17;;;6.85;;
4355;SDS011;64374;51.482;7.408;2023-11-19T11:18:29;36.00;;;7.18;;
4355;SDS011;64374;51.482;7.408;2023-11-19T11:21:17;28.27;;;6.53;;
4355;SDS011;64374;51.482;7.408;2023-11-19T11:24:24;34.33;;;7.70;;
4355;SDS011;64374;51.482;7.408;2023-11-19T11:27:35;29.10;;;7.50;;
4355;SDS011;64374;51.482;7.408;2023-11-19T11:30:35;31.35;;;6.60;;
4355;SDS011;64374;51.482;7.408;2023-11-19T11:33:35;25.20;;;6.63;;
4355;SDS011;64374;51.482;7.408;2023-11-19T11:36:49;25.83;;;6.00;;
4355;SDS011;64374;51.482;7.408;2023-11-19T11:39:45;28.55;;;5.93;;
4355;SDS011;64374;51.482;7.408;2023-11-19T11:42:34;27.08;;;6.47;;
4355;SDS011;64374;51.482;7.408;2023-11-19T11:45:34;26.73;;;6.35;;
4355;SDS011;64374;51.482;7.408;2023-11-19T11:48:23;22.48;;;6.32;;
4355;SDS011;64374;51.482;7.408;2023-11-19T11:51:14;23.90;;;6.43;;
4355;SDS011;64374;51.482;7.408;2023-11-19T11:54:00;30.20;;;6.70;;
4355;SDS011;64374;51.482;7.408;2023-11-19T11:57:00;26.45;;;7.18;;
4355;SDS011;64374;51.482;7.408;2023-11-19T11:59:52;32.97;;;6.80;;
4355;SDS011;64374;51.482;7.408;2023-11-19T12:02:40;28.70;;;6.25;;
4355;SDS011;64374;51.482;7.408;2023-11-19T12:05:26;22.42;;;5.60;;
4355;SDS011;64374;51.482;7.408;2023-11-19T12:07:55;21.23;;;5.40;;
4355;SDS011;64374;51.482;7.408;2023-11-19T12:10:25;24.02;;;5.97;;
4355;SDS011;64374;51.482;7.408;2023-11-19T12:12:57;25.42;;;6.97;;
4355;SDS011;64374;51.482;7.408;2023-11-19T12:15:27;22.33;;;6.70;;
4355;SDS011;64374;51.482;7.408;2023-11-19T12:17:58;25.42;;;6.07;;
4355;SDS011;64374;51.482;7.408;2023-11-19T12:20:27;27.10;;;6.30;;
4355;SDS011;64374;51.482;7.408;2023-11-19T12:23:00;22.73;;;5.97;;
4355;SDS011;64374;51.482;7.408;2023-11-19T12:25:34;23.98;;;6.50;;
4355;SDS011;64374;51.482;7.408;2023-11-19T12:28:02;22.90;;;5.30;;
4355;SDS011;64374;51.482;7.408;2023-11-19T12:30:33;21.42;;;5.72;;
4355;SDS011;64374;51.482;7.408;2023-11-19T12:33:07;22.38;;;6.20;;
4355;SDS011;64374;51.482;7.408;2023-11-19T12:35:38;18.08;;;5.03;;
4355;SDS011;64374;51.482;7.408;2023-11-19T12:38:06;19.57;;;5.10;;
4355;SDS011;64374;51.482;7.408;2023-11-19T12:40:35;21.20;;;5.38;;
4355;SDS011;64374;51.482;7.408;2023-11-19T12:43:03;21.75;;;5.18;;
4355;SDS011;64374;51.482;7.408;2023-11-19T12:45:35;20.92;;;5.00;;
4355;SDS011;64374;51.482;7.408;2023-11-19T12:48:22;23.95;;;5.90;;
4355;SDS011;64374;51.482;7.408;2023-11-19T12:51:09;25.50;;;5.53;;
4355;SDS011;64374;51.482;7.408;2023-11-19T12:53:58;18.35;;;5.75;;
4355;SDS011;64374;51.482;7.408;2023-11-19T12:56:51;18.70;;;5.00;;
4355;SDS011;64374;51.482;7.408;2023-11-19T12:59:37;21.23;;;5.28;;
4355;SDS011;64374;51.482;7.408;2023-11-19T13:02:34;21.20;;;5.35;;
4355;SDS011;64374;51.482;7.408;2023-11-19T13:05:32;22.83;;;6.10;;
4355;SDS011;64374;51.482;7.408;2023-11-19T13:08:19;18.88;;;6.00;;
4355;SDS011;64374;51.482;7.408;2023-11-19T13:11:06;21.85;;;5.78;;
4355;SDS011;64374;51.482;7.408;2023-11-19T13:13:54;16.77;;;5.38;;
4355;SDS011;64374;51.482;7.408;2023-11-19T13:16:41;20.70;;;5.43;;
4355;SDS011;64374;51.482;7.408;2023-11-19T13:19:32;22.77;;;5.50;;
4355;SDS011;64374;51.482;7.408;2023-11-19T13:22:18;22.50;;;5.80;;
4355;SDS011;64374;51.482;7.408;2023-11-19T13:25:06;16.98;;;5.00;;
4355;SDS011;64374;51.482;7.408;2023-11-19T13:27:57;21.40;;;5.68;;
4355;SDS011;64374;51.482;7.408;2023-11-19T13:30:44;21.98;;;5.90;;
4355;SDS011;64374;51.482;7.408;2023-11-19T13:33:30;17.20;;;4.47;;
4355;SDS011;64374;51.482;7.408;2023-11-19T13:36:19;19.05;;;4.85;;
4355;SDS011;64374;51.482;7.408;2023-11-19T13:39:05;20.60;;;4.97;;
4355;SDS011;64374;51.482;7.408;2023-11-19T13:41:52;17.75;;;4.30;;
4355;SDS011;64374;51.482;7.408;2023-11-19T13:44:57;17.88;;;4.50;;
4355;SDS011;64374;51.482;7.408;2023-11-19T13:47:45;16.95;;;4.38;;
4355;SDS011;64374;51.482;7.408;2023-11-19T13:50:32;15.27;;;4.30;;
4355;SDS011;64374;51.482;7.408;2023-11-19T13:53:23;21.65;;;5.00;;
4355;SDS011;64374;51.482;7.408;2023-11-19T13:56:10;21.95;;;4.70;;
4355;SDS011;64374;51.482;7.408;2023-11-19T13:58:56;11.80;;;4.50;;
4355;SDS011;64374;51.482;7.408;2023-11-19T14:01:43;15.30;;;4.87;;
4355;SDS011;64374;51.482;7.408;2023-11-19T14:04:34;17.42;;;4.40;;
4355;SDS011;64374;51.482;7.408;2023-11-19T14:07:21;19.65;;;4.47;;
4355;SDS011;64374;51.482;7.408;2023-11-19T14:10:12;18.40;;;4.80;;
4355;SDS011;64374;51.482;7.408;2023-11-19T14:12:58;20.65;;;5.22;;
4355;SDS011;64374;51.482;7.408;2023-11-19T14:15:45;14.57;;;4.63;;
4355;SDS011;64374;51.482;7.408;2023-11-19T14:18:16;20.77;;;5.00;;
4355;SDS011;64374;51.482;7.408;2023-11-19T14:20:49;19.05;;;4.93;;
4355;SDS011;64374;51.482;7.408;2023-11-19T14:23:17;18.88;;;5.40;;
4355;SDS011;64374;51.482;7.408;2023-11-19T14:25:46;22.17;;;5.30;;
4355;SDS011;64374;51.482;7.408;2023-11-19T14:28:17;18.17;;;5.40;;
4355;SDS011;64374;51.482;7.408;2023-11-19T14:30:46;18.55;;;5.40;;
4355;SDS011;64374;51.482;7.408;2023-11-19T14:33:23;17.00;;;4.57;;
4355;SDS011;64374;51.482;7.408;2023-11-19T14:35:51;20.80;;;5.35;;
4355;SDS011;64374;51.482;7.408;2023-11-19T14:38:20;18.27;;;5.15;;
4355;SDS011;64374;51.482;7.408;2023-11-19T14:40:50;21.20;;;5.70;;
4355;SDS011;64374;51.482;7.408;2023-11-19T14:43:18;17.25;;;4.68;;
4355;SDS011;64374;51.482;7.408;2023-11-19T14:45:49;19.77;;;4.93;;
4355;SDS011;64374;51.482;7.408;2023-11-19T14:48:23;16.33;;;4.40;;
4355;SDS011;64374;51.482;7.408;2023-11-19T14:50:52;19.77;;;5.25;;
4355;SDS011;64374;51.482;7.408;2023-11-19T14:53:22;16.67;;;4.88;;
4355;SDS011;64374;51.482;7.408;2023-11-19T14:55:52;16.17;;;4.95;;
4355;SDS011;64374;51.482;7.408;2023-11-19T14:58:21;12.63;;;4.97;;
4355;SDS011;64374;51.482;7.408;2023-11-19T15:00:52;20.13;;;5.10;;
4355;SDS011;64374;51.482;7.408;2023-11-19T15:03:21;19.23;;;5.10;;
4355;SDS011;64374;51.482;7.408;2023-11-19T15:05:51;18.05;;;5.05;;
4355;SDS011;64374;51.482;7.408;2023-11-19T15:08:20;19.02;;;4.70;;
4355;SDS011;64374;51.482;7.408;2023-11-19T15:10:48;19.50;;;5.00;;
4355;SDS011;64374;51.482;7.408;2023-11-19T15:13:20;18.47;;;4.87;;
4355;SDS011;64374;51.482;7.408;2023-11-19T15:15:51;21.35;;;5.85;;
4355;SDS011;64374;51.482;7.408;2023-11-19T15:18:21;22.02;;;5.38;;
4355;SDS011;64374;51.482;7.408;2023-11-19T15:21:09;17.35;;;5.50;;
4355;SDS011;64374;51.482;7.408;2023-11-19T15:23:55;14.63;;;4.30;;
4355;SDS011;64374;51.482;7.408;2023-11-19T15:26:42;16.58;;;4.47;;
4355;SDS011;64374;51.482;7.408;2023-11-19T15:29:35;17.25;;;4.43;;
4355;SDS011;64374;51.482;7.408;2023-11-19T15:32:24;18.17;;;4.50;;
4355;SDS011;64374;51.482;7.408;2023-11-19T15:35:11;15.25;;;4.95;;
4355;SDS011;64374;51.482;7.408;2023-11-19T15:37:59;23.13;;;5.25;;
4355;SDS011;64374;51.482;7.408;2023-11-19T15:40:46;14.73;;;4.90;;
4355;SDS011;64374;51.482;7.408;2023-11-19T15:43:35;17.35;;;4.88;;
4355;SDS011;64374;51.482;7.408;2023-11-19T15:46:24;19.38;;;4.43;;
4355;SDS011;64374;51.482;7.408;2023-11-19T15:49:11;18.90;;;4.88;;
4355;SDS011;64374;51.482;7.408;2023-11-19T15:51:57;23.85;;;5.60;;
4355;SDS011;64374;51.482;7.408;2023-11-19T15:54:47;17.77;;;4.90;;
4355;SDS011;64374;51.482;7.408;2023-11-19T15:57:37;19.67;;;4.93;;
4355;SDS011;64374;51.482;7.408;2023-11-19T16:00:24;21.70;;;5.15;;
4355;SDS011;64374;51.482;7.408;2023-11-19T16:03:11;19.35;;;5.75;;
4355;SDS011;64374;51.482;7.408;2023-11-19T16:06:01;20.58;;;4.80;;
4355;SDS011;64374;51.482;7.408;2023-11-19T16:08:54;18.42;;;4.72;;
4355;SDS011;64374;51.482;7.408;2023-11-19T16:11:41;19.58;;;4.78;;
4355;SDS011;64374;51.482;7.408;2023-11-19T16:14:40;19.60;;;5.40;;
4355;SDS011;64374;51.482;7.408;2023-11-19T16:17:27;19.85;;;5.22;;
4355;SDS011;64374;51.482;7.408;2023-11-19T16:20:16;19.77;;;5.38;;
4355;SDS011;64374;51.482;7.408;2023-11-19T16:23:03;23.50;;;5.28;;
4355;SDS011;64374;51.482;7.408;2023-11-19T16:25:50;22.00;;;5.03;;
4355;SDS011;64374;51.482;7.408;2023-11-19T16:28:39;19.08;;;5.10;;
4355;SDS011;64374;51.482;7.408;2023-11-19T16:31:29;19.65;;;5.30;;
4355;SDS011;64374;51.482;7.408;2023-11-19T16:34:16;19.00;;;5.20;;
4355;SDS011;64374;51.482;7.408;2023-11-19T16:37:06;17.98;;;4.63;;
4355;SDS011;64374;51.482;7.408;2023-11-19T16:39:56;20.38;;;4.90;;
4355;SDS011;64374;51.482;7.408;2023-11-19T16:42:43;21.97;;;5.27;;
4355;SDS011;64374;51.482;7.408;2023-11-19T16:45:30;23.48;;;5.40;;